sensor_id;sensor_type;location;lat;lon;timestamp;pressure;altitude;pressure_sealevel;temperature
51149;BMP280;37210;50.058;8.688;2022-09-09T00:00:31;99677.44;;;19.72
51149;BMP280;37210;50.058;8.688;2022-09-09T00:03:10;99501.09;;;18.86
51149;BMP280;37210;50.058;8.688;2022-09-09T00:05:48;99638.59;;;19.71
51149;BMP280;37210;50.058;8.688;2022-09-09T00:08:31;99688.81;;;19.94
51149;BMP280;37210;50.058;8.688;2022-09-09T00:11:09;99637.53;;;19.75
51149;BMP280;37210;50.058;8.688;2022-09-09T00:13:44;99681.41;;;20.01
51149;BMP280;37210;50.058;8.688;2022-09-09T00:16:18;99687.00;;;19.94
51149;BMP280;37210;50.058;8.688;2022-09-09T00:19:01;99699.28;;;19.97
51149;BMP280;37210;50.058;8.688;2022-09-09T00:21:36;99527.34;;;18.92
51149;BMP280;37210;50.058;8.688;2022-09-09T00:24:10;99673.22;;;19.68
51149;BMP280;37210;50.058;8.688;2022-09-09T00:26:56;99656.50;;;19.66
51149;BMP280;37210;50.058;8.688;2022-09-09T00:29:36;99685.00;;;19.81
51149;BMP280;37210;50.058;8.688;2022-09-09T00:32:13;99643.13;;;19.69
51149;BMP280;37210;50.058;8.688;2022-09-09T00:34:47;99684.84;;;19.84
51149;BMP280;37210;50.058;8.688;2022-09-09T00:37:19;99555.09;;;18.83
51149;BMP280;37210;50.058;8.688;2022-09-09T00:39:48;99524.91;;;18.67
51149;BMP280;37210;50.058;8.688;2022-09-09T00:42:25;99624.19;;;19.19
51149;BMP280;37210;50.058;8.688;2022-09-09T00:45:05;99695.91;;;19.75
51149;BMP280;37210;50.058;8.688;2022-09-09T00:47:52;99644.88;;;19.30
51149;BMP280;37210;50.058;8.688;2022-09-09T00:50:34;99693.94;;;19.60
51149;BMP280;37210;50.058;8.688;2022-09-09T00:53:24;99678.13;;;19.38
51149;BMP280;37210;50.058;8.688;2022-09-09T00:56:09;99627.06;;;19.13
51149;BMP280;37210;50.058;8.688;2022-09-09T00:58:43;99691.44;;;19.37
51149;BMP280;37210;50.058;8.688;2022-09-09T01:01:20;99684.81;;;19.47
51149;BMP280;37210;50.058;8.688;2022-09-09T01:03:49;99498.56;;;18.44
51149;BMP280;37210;50.058;8.688;2022-09-09T01:06:27;99689.78;;;19.54
51149;BMP280;37210;50.058;8.688;2022-09-09T01:09:08;99690.09;;;19.47
51149;BMP280;37210;50.058;8.688;2022-09-09T01:11:51;99688.41;;;19.46
51149;BMP280;37210;50.058;8.688;2022-09-09T01:14:38;99683.84;;;19.28
51149;BMP280;37210;50.058;8.688;2022-09-09T01:17:13;99623.31;;;18.98
51149;BMP280;37210;50.058;8.688;2022-09-09T01:20:03;99631.00;;;18.84
51149;BMP280;37210;50.058;8.688;2022-09-09T01:22:56;99566.50;;;18.45
51149;BMP280;37210;50.058;8.688;2022-09-09T01:26:13;99673.16;;;19.10
51149;BMP280;37210;50.058;8.688;2022-09-09T01:28:47;99674.94;;;19.10
51149;BMP280;37210;50.058;8.688;2022-09-09T01:31:22;99657.44;;;18.86
51149;BMP280;37210;50.058;8.688;2022-09-09T01:33:55;99605.38;;;18.43
51149;BMP280;37210;50.058;8.688;2022-09-09T01:36:27;99640.91;;;18.59
51149;BMP280;37210;50.058;8.688;2022-09-09T01:39:02;99547.84;;;17.85
51149;BMP280;37210;50.058;8.688;2022-09-09T01:41:32;99678.69;;;18.84
51149;BMP280;37210;50.058;8.688;2022-09-09T01:44:04;99663.66;;;18.65
51149;BMP280;37210;50.058;8.688;2022-09-09T01:46:35;99678.69;;;18.84
51149;BMP280;37210;50.058;8.688;2022-09-09T01:49:06;99543.56;;;18.02
51149;BMP280;37210;50.058;8.688;2022-09-09T01:51:37;99638.41;;;18.56
51149;BMP280;37210;50.058;8.688;2022-09-09T01:54:11;99566.47;;;18.03
51149;BMP280;37210;50.058;8.688;2022-09-09T01:56:47;99546.78;;;17.89
51149;BMP280;37210;50.058;8.688;2022-09-09T02:02:18;99482.56;;;17.64
51149;BMP280;37210;50.058;8.688;2022-09-09T02:05:13;99673.75;;;18.77
51149;BMP280;37210;50.058;8.688;2022-09-09T02:07:49;99676.47;;;18.54
51149;BMP280;37210;50.058;8.688;2022-09-09T02:10:33;99596.47;;;18.24
51149;BMP280;37210;50.058;8.688;2022-09-09T02:13:19;99606.47;;;18.17
51149;BMP280;37210;50.058;8.688;2022-09-09T02:15:52;99657.00;;;18.55
51149;BMP280;37210;50.058;8.688;2022-09-09T02:18:29;99645.47;;;18.34
51149;BMP280;37210;50.058;8.688;2022-09-09T02:21:03;99502.81;;;17.20
51149;BMP280;37210;50.058;8.688;2022-09-09T02:23:32;99590.28;;;17.60
51149;BMP280;37210;50.058;8.688;2022-09-09T02:26:04;99672.16;;;18.08
51149;BMP280;37210;50.058;8.688;2022-09-09T02:28:37;99674.78;;;18.08
51149;BMP280;37210;50.058;8.688;2022-09-09T02:31:06;99568.25;;;17.60
51149;BMP280;37210;50.058;8.688;2022-09-09T02:33:44;99667.13;;;18.00
51149;BMP280;37210;50.058;8.688;2022-09-09T02:36:16;99514.50;;;17.36
51149;BMP280;37210;50.058;8.688;2022-09-09T02:38:47;99696.25;;;18.45
51149;BMP280;37210;50.058;8.688;2022-09-09T02:41:24;99696.72;;;18.33
51149;BMP280;37210;50.058;8.688;2022-09-09T02:44:00;99563.44;;;17.46
51149;BMP280;37210;50.058;8.688;2022-09-09T02:46:39;99671.09;;;18.12
51149;BMP280;37210;50.058;8.688;2022-09-09T02:49:29;99541.94;;;17.33
51149;BMP280;37210;50.058;8.688;2022-09-09T02:52:06;99527.72;;;17.36
51149;BMP280;37210;50.058;8.688;2022-09-09T02:54:38;99693.38;;;18.28
51149;BMP280;37210;50.058;8.688;2022-09-09T02:57:11;99446.84;;;16.87
51149;BMP280;37210;50.058;8.688;2022-09-09T02:59:44;99694.31;;;18.27
51149;BMP280;37210;50.058;8.688;2022-09-09T03:02:12;99654.00;;;18.20
51149;BMP280;37210;50.058;8.688;2022-09-09T03:04:42;99666.19;;;18.46
51149;BMP280;37210;50.058;8.688;2022-09-09T03:07:12;99674.50;;;18.37
51149;BMP280;37210;50.058;8.688;2022-09-09T03:09:41;99700.78;;;18.20
51149;BMP280;37210;50.058;8.688;2022-09-09T03:12:10;99667.09;;;18.02
51149;BMP280;37210;50.058;8.688;2022-09-09T03:14:38;99673.06;;;18.07
51149;BMP280;37210;50.058;8.688;2022-09-09T03:17:08;99678.28;;;18.30
51149;BMP280;37210;50.058;8.688;2022-09-09T03:19:42;99513.94;;;17.51
51149;BMP280;37210;50.058;8.688;2022-09-09T03:22:10;99676.56;;;18.52
51149;BMP280;37210;50.058;8.688;2022-09-09T03:24:41;99678.34;;;18.52
51149;BMP280;37210;50.058;8.688;2022-09-09T03:27:09;99595.28;;;17.89
51149;BMP280;37210;50.058;8.688;2022-09-09T03:29:38;99559.22;;;17.87
51149;BMP280;37210;50.058;8.688;2022-09-09T03:32:11;99575.97;;;17.87
51149;BMP280;37210;50.058;8.688;2022-09-09T03:34:41;99660.88;;;18.46
51149;BMP280;37210;50.058;8.688;2022-09-09T03:37:11;99504.44;;;17.69
51149;BMP280;37210;50.058;8.688;2022-09-09T03:39:39;99591.56;;;18.15
51149;BMP280;37210;50.058;8.688;2022-09-09T03:42:08;99488.69;;;17.21
51149;BMP280;37210;50.058;8.688;2022-09-09T03:44:36;99688.78;;;18.33
51149;BMP280;37210;50.058;8.688;2022-09-09T03:47:04;99581.03;;;17.70
51149;BMP280;37210;50.058;8.688;2022-09-09T03:49:34;99666.53;;;17.94
51149;BMP280;37210;50.058;8.688;2022-09-09T03:52:02;99628.81;;;17.66
51149;BMP280;37210;50.058;8.688;2022-09-09T03:54:29;99643.00;;;17.65
51149;BMP280;37210;50.058;8.688;2022-09-09T03:56:57;99668.69;;;18.06
51149;BMP280;37210;50.058;8.688;2022-09-09T03:59:25;99667.75;;;18.07
51149;BMP280;37210;50.058;8.688;2022-09-09T04:01:53;99680.50;;;17.97
51149;BMP280;37210;50.058;8.688;2022-09-09T04:04:22;99533.78;;;17.39
51149;BMP280;37210;50.058;8.688;2022-09-09T04:06:51;99502.75;;;16.98
51149;BMP280;37210;50.058;8.688;2022-09-09T04:09:19;99569.16;;;17.58
51149;BMP280;37210;50.058;8.688;2022-09-09T04:11:49;99640.53;;;17.82
51149;BMP280;37210;50.058;8.688;2022-09-09T04:14:16;99604.53;;;17.78
51149;BMP280;37210;50.058;8.688;2022-09-09T04:16:44;99658.41;;;18.20
51149;BMP280;37210;50.058;8.688;2022-09-09T04:19:12;99674.91;;;18.05
51149;BMP280;37210;50.058;8.688;2022-09-09T04:21:42;99673.53;;;17.95
51149;BMP280;37210;50.058;8.688;2022-09-09T04:24:11;99664.88;;;17.91
51149;BMP280;37210;50.058;8.688;2022-09-09T04:26:39;99669.75;;;18.02
51149;BMP280;37210;50.058;8.688;2022-09-09T04:29:07;99633.31;;;17.64
51149;BMP280;37210;50.058;8.688;2022-09-09T04:31:35;99651.88;;;17.85
51149;BMP280;37210;50.058;8.688;2022-09-09T04:34:08;99651.31;;;17.77
51149;BMP280;37210;50.058;8.688;2022-09-09T04:36:36;99545.72;;;17.26
51149;BMP280;37210;50.058;8.688;2022-09-09T04:39:05;99614.94;;;17.61
51149;BMP280;37210;50.058;8.688;2022-09-09T04:41:35;99618.50;;;17.60
51149;BMP280;37210;50.058;8.688;2022-09-09T04:44:03;99531.22;;;17.36
51149;BMP280;37210;50.058;8.688;2022-09-09T04:46:33;99614.06;;;17.82
51149;BMP280;37210;50.058;8.688;2022-09-09T04:49:03;99547.97;;;17.37
51149;BMP280;37210;50.058;8.688;2022-09-09T04:51:33;99663.53;;;17.80
51149;BMP280;37210;50.058;8.688;2022-09-09T04:54:01;99646.34;;;17.91
51149;BMP280;37210;50.058;8.688;2022-09-09T04:56:28;99642.94;;;17.88
51149;BMP280;37210;50.058;8.688;2022-09-09T04:58:59;99561.91;;;17.40
51149;BMP280;37210;50.058;8.688;2022-09-09T05:01:39;99641.53;;;17.79
51149;BMP280;37210;50.058;8.688;2022-09-09T05:04:07;99565.03;;;17.51
51149;BMP280;37210;50.058;8.688;2022-09-09T05:06:35;99630.16;;;17.77
51149;BMP280;37210;50.058;8.688;2022-09-09T05:09:03;99618.38;;;17.63
51149;BMP280;37210;50.058;8.688;2022-09-09T05:11:32;99684.81;;;18.21
51149;BMP280;37210;50.058;8.688;2022-09-09T05:14:11;99669.31;;;18.12
51149;BMP280;37210;50.058;8.688;2022-09-09T05:16:40;99692.66;;;18.24
51149;BMP280;37210;50.058;8.688;2022-09-09T05:19:10;99696.81;;;18.30
51149;BMP280;37210;50.058;8.688;2022-09-09T05:21:44;99642.31;;;18.04
51149;BMP280;37210;50.058;8.688;2022-09-09T05:24:14;99657.03;;;17.88
51149;BMP280;37210;50.058;8.688;2022-09-09T05:26:42;99711.91;;;18.28
51149;BMP280;37210;50.058;8.688;2022-09-09T05:29:12;99684.25;;;18.13
51149;BMP280;37210;50.058;8.688;2022-09-09T05:31:40;99708.63;;;18.45
51149;BMP280;37210;50.058;8.688;2022-09-09T05:34:11;99705.78;;;18.49
51149;BMP280;37210;50.058;8.688;2022-09-09T05:36:39;99710.72;;;18.13
51149;BMP280;37210;50.058;8.688;2022-09-09T05:39:06;99709.69;;;18.17
51149;BMP280;37210;50.058;8.688;2022-09-09T05:41:34;99710.56;;;18.18
51149;BMP280;37210;50.058;8.688;2022-09-09T05:44:03;99722.13;;;18.15
51149;BMP280;37210;50.058;8.688;2022-09-09T05:46:36;99721.69;;;18.26
51149;BMP280;37210;50.058;8.688;2022-09-09T05:49:04;99718.06;;;18.28
51149;BMP280;37210;50.058;8.688;2022-09-09T05:51:33;99702.84;;;18.12
51149;BMP280;37210;50.058;8.688;2022-09-09T05:54:06;99721.91;;;18.43
51149;BMP280;37210;50.058;8.688;2022-09-09T05:56:38;99693.81;;;18.17
51149;BMP280;37210;50.058;8.688;2022-09-09T05:59:07;99733.81;;;18.31
51149;BMP280;37210;50.058;8.688;2022-09-09T06:01:37;99738.28;;;18.31
51149;BMP280;37210;50.058;8.688;2022-09-09T06:04:07;99703.09;;;18.06
51149;BMP280;37210;50.058;8.688;2022-09-09T06:06:37;99679.25;;;18.29
51149;BMP280;37210;50.058;8.688;2022-09-09T06:09:12;99672.22;;;18.06
51149;BMP280;37210;50.058;8.688;2022-09-09T06:11:43;99727.25;;;18.42
51149;BMP280;37210;50.058;8.688;2022-09-09T06:14:13;99715.00;;;18.39
51149;BMP280;37210;50.058;8.688;2022-09-09T06:16:43;99729.63;;;18.49
51149;BMP280;37210;50.058;8.688;2022-09-09T06:19:24;99668.09;;;18.21
51149;BMP280;37210;50.058;8.688;2022-09-09T06:21:53;99707.31;;;18.96
51149;BMP280;37210;50.058;8.688;2022-09-09T06:24:21;99709.16;;;19.56
51149;BMP280;37210;50.058;8.688;2022-09-09T06:26:50;99614.38;;;19.01
51149;BMP280;37210;50.058;8.688;2022-09-09T06:29:22;99688.66;;;19.97
51149;BMP280;37210;50.058;8.688;2022-09-09T06:31:53;99733.69;;;20.17
51149;BMP280;37210;50.058;8.688;2022-09-09T06:34:23;99733.09;;;20.31
51149;BMP280;37210;50.058;8.688;2022-09-09T06:36:56;99696.63;;;20.34
51149;BMP280;37210;50.058;8.688;2022-09-09T06:39:26;99732.00;;;20.53
51149;BMP280;37210;50.058;8.688;2022-09-09T06:41:55;99737.13;;;20.75
51149;BMP280;37210;50.058;8.688;2022-09-09T06:44:45;99737.13;;;20.75
51149;BMP280;37210;50.058;8.688;2022-09-09T06:47:23;99655.28;;;20.10
51149;BMP280;37210;50.058;8.688;2022-09-09T06:49:50;99698.94;;;20.59
51149;BMP280;37210;50.058;8.688;2022-09-09T06:52:18;99719.13;;;20.63
51149;BMP280;37210;50.058;8.688;2022-09-09T06:54:47;99741.41;;;20.60
51149;BMP280;37210;50.058;8.688;2022-09-09T06:57:16;99732.81;;;20.73
51149;BMP280;37210;50.058;8.688;2022-09-09T06:59:43;99729.47;;;20.86
51149;BMP280;37210;50.058;8.688;2022-09-09T07:02:12;99644.59;;;20.30
51149;BMP280;37210;50.058;8.688;2022-09-09T07:04:41;99712.22;;;21.12
51149;BMP280;37210;50.058;8.688;2022-09-09T07:07:09;99639.94;;;20.87
51149;BMP280;37210;50.058;8.688;2022-09-09T07:09:39;99713.56;;;21.03
51149;BMP280;37210;50.058;8.688;2022-09-09T07:12:08;99733.28;;;21.33
51149;BMP280;37210;50.058;8.688;2022-09-09T07:14:40;99659.72;;;20.64
51149;BMP280;37210;50.058;8.688;2022-09-09T07:17:08;99738.81;;;21.29
51149;BMP280;37210;50.058;8.688;2022-09-09T07:19:38;99757.03;;;20.66
51149;BMP280;37210;50.058;8.688;2022-09-09T07:22:07;99746.88;;;20.75
51149;BMP280;37210;50.058;8.688;2022-09-09T07:24:36;99656.44;;;19.86
51149;BMP280;37210;50.058;8.688;2022-09-09T07:27:04;99694.69;;;20.19
51149;BMP280;37210;50.058;8.688;2022-09-09T07:29:33;99750.72;;;20.69
51149;BMP280;37210;50.058;8.688;2022-09-09T07:32:01;99684.78;;;20.41
51149;BMP280;37210;50.058;8.688;2022-09-09T07:34:34;99739.56;;;20.97
51149;BMP280;37210;50.058;8.688;2022-09-09T07:37:02;99740.53;;;20.60
51149;BMP280;37210;50.058;8.688;2022-09-09T07:39:32;99748.59;;;20.58
51149;BMP280;37210;50.058;8.688;2022-09-09T07:42:01;99751.66;;;20.49
51149;BMP280;37210;50.058;8.688;2022-09-09T07:44:33;99721.78;;;20.27
51149;BMP280;37210;50.058;8.688;2022-09-09T07:47:08;99744.34;;;20.54
51149;BMP280;37210;50.058;8.688;2022-09-09T07:49:41;99654.84;;;20.19
51149;BMP280;37210;50.058;8.688;2022-09-09T07:52:09;99706.84;;;20.25
51149;BMP280;37210;50.058;8.688;2022-09-09T07:54:42;99749.88;;;20.50
51149;BMP280;37210;50.058;8.688;2022-09-09T07:57:12;99768.09;;;20.57
51149;BMP280;37210;50.058;8.688;2022-09-09T07:59:44;99665.13;;;19.89
51149;BMP280;37210;50.058;8.688;2022-09-09T08:02:13;99780.75;;;20.52
51149;BMP280;37210;50.058;8.688;2022-09-09T08:04:41;99748.78;;;20.17
51149;BMP280;37210;50.058;8.688;2022-09-09T08:07:09;99781.91;;;20.47
51149;BMP280;37210;50.058;8.688;2022-09-09T08:09:46;99761.59;;;20.27
51149;BMP280;37210;50.058;8.688;2022-09-09T08:12:21;99787.19;;;20.65
51149;BMP280;37210;50.058;8.688;2022-09-09T08:14:49;99756.50;;;20.23
51149;BMP280;37210;50.058;8.688;2022-09-09T08:17:17;99714.19;;;20.18
51149;BMP280;37210;50.058;8.688;2022-09-09T08:19:45;99701.22;;;20.31
51149;BMP280;37210;50.058;8.688;2022-09-09T08:22:17;99690.53;;;20.32
51149;BMP280;37210;50.058;8.688;2022-09-09T08:24:46;99667.66;;;20.47
51149;BMP280;37210;50.058;8.688;2022-09-09T08:27:14;99794.88;;;20.90
51149;BMP280;37210;50.058;8.688;2022-09-09T08:29:42;99794.03;;;20.88
51149;BMP280;37210;50.058;8.688;2022-09-09T08:32:10;99799.31;;;20.90
51149;BMP280;37210;50.058;8.688;2022-09-09T08:34:39;99773.22;;;21.32
51149;BMP280;37210;50.058;8.688;2022-09-09T08:37:12;99684.91;;;20.91
51149;BMP280;37210;50.058;8.688;2022-09-09T08:39:41;99791.84;;;21.66
51149;BMP280;37210;50.058;8.688;2022-09-09T08:42:37;99784.81;;;21.65
51149;BMP280;37210;50.058;8.688;2022-09-09T08:45:29;99785.53;;;21.69
51149;BMP280;37210;50.058;8.688;2022-09-09T08:48:17;99780.97;;;21.71
51149;BMP280;37210;50.058;8.688;2022-09-09T08:50:57;99704.09;;;21.15
51149;BMP280;37210;50.058;8.688;2022-09-09T08:53:36;99793.19;;;21.58
51149;BMP280;37210;50.058;8.688;2022-09-09T08:56:12;99794.28;;;21.71
51149;BMP280;37210;50.058;8.688;2022-09-09T08:58:53;99723.97;;;21.25
51149;BMP280;37210;50.058;8.688;2022-09-09T09:01:42;99752.28;;;21.43
51149;BMP280;37210;50.058;8.688;2022-09-09T09:04:38;99773.09;;;21.35
51149;BMP280;37210;50.058;8.688;2022-09-09T09:07:25;99675.56;;;20.65
51149;BMP280;37210;50.058;8.688;2022-09-09T09:10:12;99768.66;;;21.35
51149;BMP280;37210;50.058;8.688;2022-09-09T09:12:47;99726.47;;;21.11
51149;BMP280;37210;50.058;8.688;2022-09-09T09:15:23;99653.66;;;20.96
51149;BMP280;37210;50.058;8.688;2022-09-09T09:17:54;99770.75;;;21.63
51149;BMP280;37210;50.058;8.688;2022-09-09T09:20:29;99765.13;;;22.02
51149;BMP280;37210;50.058;8.688;2022-09-09T09:23:13;99652.25;;;21.23
51149;BMP280;37210;50.058;8.688;2022-09-09T09:25:50;99695.84;;;21.86
51149;BMP280;37210;50.058;8.688;2022-09-09T09:28:25;99733.00;;;22.20
51149;BMP280;37210;50.058;8.688;2022-09-09T09:31:05;99659.50;;;22.01
51149;BMP280;37210;50.058;8.688;2022-09-09T09:33:45;99748.88;;;22.06
51149;BMP280;37210;50.058;8.688;2022-09-09T09:36:17;99759.47;;;22.39
51149;BMP280;37210;50.058;8.688;2022-09-09T09:38:55;99774.06;;;22.32
51149;BMP280;37210;50.058;8.688;2022-09-09T09:41:31;99771.78;;;22.42
51149;BMP280;37210;50.058;8.688;2022-09-09T09:44:02;99732.50;;;22.30
51149;BMP280;37210;50.058;8.688;2022-09-09T09:46:32;99766.34;;;22.43
51149;BMP280;37210;50.058;8.688;2022-09-09T09:49:09;99769.09;;;22.10
51149;BMP280;37210;50.058;8.688;2022-09-09T09:51:39;99781.66;;;21.91
51149;BMP280;37210;50.058;8.688;2022-09-09T09:54:13;99772.09;;;21.37
51149;BMP280;37210;50.058;8.688;2022-09-09T09:56:50;99763.44;;;21.84
51149;BMP280;37210;50.058;8.688;2022-09-09T09:59:21;99755.19;;;21.88
51149;BMP280;37210;50.058;8.688;2022-09-09T10:01:52;99762.44;;;21.52
51149;BMP280;37210;50.058;8.688;2022-09-09T10:04:22;99707.94;;;21.59
51149;BMP280;37210;50.058;8.688;2022-09-09T10:06:53;99756.25;;;21.52
51149;BMP280;37210;50.058;8.688;2022-09-09T10:09:24;99739.03;;;21.59
51149;BMP280;37210;50.058;8.688;2022-09-09T10:11:57;99752.13;;;21.46
51149;BMP280;37210;50.058;8.688;2022-09-09T10:14:39;99750.03;;;21.35
51149;BMP280;37210;50.058;8.688;2022-09-09T10:17:23;99752.38;;;21.74
51149;BMP280;37210;50.058;8.688;2022-09-09T10:20:14;99626.25;;;21.28
51149;BMP280;37210;50.058;8.688;2022-09-09T10:22:51;99583.34;;;21.19
51149;BMP280;37210;50.058;8.688;2022-09-09T10:25:32;99570.22;;;21.31
51149;BMP280;37210;50.058;8.688;2022-09-09T10:28:17;99731.72;;;22.27
51149;BMP280;37210;50.058;8.688;2022-09-09T10:31:07;99708.41;;;22.00
51149;BMP280;37210;50.058;8.688;2022-09-09T10:33:50;99625.94;;;21.98
51149;BMP280;37210;50.058;8.688;2022-09-09T10:36:24;99736.41;;;23.00
51149;BMP280;37210;50.058;8.688;2022-09-09T10:38:58;99589.75;;;22.25
51149;BMP280;37210;50.058;8.688;2022-09-09T10:41:42;99621.91;;;22.07
51149;BMP280;37210;50.058;8.688;2022-09-09T10:44:29;99640.94;;;22.31
51149;BMP280;37210;50.058;8.688;2022-09-09T10:47:26;99741.44;;;22.60
51149;BMP280;37210;50.058;8.688;2022-09-09T10:50:18;99735.25;;;22.59
51149;BMP280;37210;50.058;8.688;2022-09-09T10:53:14;99709.34;;;22.77
51149;BMP280;37210;50.058;8.688;2022-09-09T10:55:52;99609.59;;;21.73
51149;BMP280;37210;50.058;8.688;2022-09-09T10:58:28;99674.56;;;22.02
51149;BMP280;37210;50.058;8.688;2022-09-09T11:01:06;99698.97;;;22.10
51149;BMP280;37210;50.058;8.688;2022-09-09T11:03:41;99718.28;;;22.45
51149;BMP280;37210;50.058;8.688;2022-09-09T11:06:17;99610.38;;;21.42
51149;BMP280;37210;50.058;8.688;2022-09-09T11:08:49;99716.59;;;22.59
51149;BMP280;37210;50.058;8.688;2022-09-09T11:11:21;99605.94;;;22.07
51149;BMP280;37210;50.058;8.688;2022-09-09T11:14:02;99676.13;;;22.21
51149;BMP280;37210;50.058;8.688;2022-09-09T11:16:41;99697.41;;;22.37
51149;BMP280;37210;50.058;8.688;2022-09-09T11:19:19;99688.91;;;22.31
51149;BMP280;37210;50.058;8.688;2022-09-09T11:21:53;99555.56;;;21.56
51149;BMP280;37210;50.058;8.688;2022-09-09T11:24:27;99707.22;;;22.37
51149;BMP280;37210;50.058;8.688;2022-09-09T11:30:36;99718.22;;;22.77
51149;BMP280;37210;50.058;8.688;2022-09-09T11:33:26;99696.13;;;22.44
51149;BMP280;37210;50.058;8.688;2022-09-09T11:39:44;99694.00;;;22.96
51149;BMP280;37210;50.058;8.688;2022-09-09T11:42:36;99683.47;;;23.23
51149;BMP280;37210;50.058;8.688;2022-09-09T11:45:20;99595.19;;;22.83
51149;BMP280;37210;50.058;8.688;2022-09-09T11:47:53;99646.38;;;23.04
51149;BMP280;37210;50.058;8.688;2022-09-09T11:50:30;99694.59;;;23.87
51149;BMP280;37210;50.058;8.688;2022-09-09T11:53:18;99634.34;;;23.41
51149;BMP280;37210;50.058;8.688;2022-09-09T11:56:09;99702.53;;;23.74
51149;BMP280;37210;50.058;8.688;2022-09-09T11:58:43;99686.41;;;23.18
51149;BMP280;37210;50.058;8.688;2022-09-09T12:01:30;99701.16;;;23.10
51149;BMP280;37210;50.058;8.688;2022-09-09T12:04:31;99718.06;;;23.24
51149;BMP280;37210;50.058;8.688;2022-09-09T12:07:04;99702.16;;;23.52
51149;BMP280;37210;50.058;8.688;2022-09-09T12:09:52;99528.38;;;22.57
51149;BMP280;37210;50.058;8.688;2022-09-09T12:12:29;99714.25;;;23.72
51149;BMP280;37210;50.058;8.688;2022-09-09T12:15:22;99709.13;;;23.69
51149;BMP280;37210;50.058;8.688;2022-09-09T12:17:55;99660.72;;;23.31
51149;BMP280;37210;50.058;8.688;2022-09-09T12:20:31;99709.59;;;23.90
51149;BMP280;37210;50.058;8.688;2022-09-09T12:23:15;99707.31;;;23.69
51149;BMP280;37210;50.058;8.688;2022-09-09T12:26:00;99678.13;;;23.52
51149;BMP280;37210;50.058;8.688;2022-09-09T12:28:44;99683.34;;;23.54
51149;BMP280;37210;50.058;8.688;2022-09-09T12:31:24;99697.38;;;23.57
51149;BMP280;37210;50.058;8.688;2022-09-09T12:34:04;99715.94;;;23.45
51149;BMP280;37210;50.058;8.688;2022-09-09T12:36:38;99685.56;;;23.18
51149;BMP280;37210;50.058;8.688;2022-09-09T12:39:17;99689.47;;;22.82
51149;BMP280;37210;50.058;8.688;2022-09-09T12:41:54;99719.25;;;22.12
51149;BMP280;37210;50.058;8.688;2022-09-09T12:44:23;99678.09;;;22.34
51149;BMP280;37210;50.058;8.688;2022-09-09T12:46:51;99718.66;;;22.70
51149;BMP280;37210;50.058;8.688;2022-09-09T12:49:27;99739.44;;;22.32
51149;BMP280;37210;50.058;8.688;2022-09-09T12:52:02;99636.03;;;21.61
51149;BMP280;37210;50.058;8.688;2022-09-09T12:54:34;99690.81;;;21.80
51149;BMP280;37210;50.058;8.688;2022-09-09T12:57:05;99605.25;;;21.07
51149;BMP280;37210;50.058;8.688;2022-09-09T12:59:42;99566.34;;;21.21
51149;BMP280;37210;50.058;8.688;2022-09-09T13:02:19;99678.94;;;21.55
51149;BMP280;37210;50.058;8.688;2022-09-09T13:04:53;99715.78;;;21.95
51149;BMP280;37210;50.058;8.688;2022-09-09T13:07:21;99714.59;;;22.16
51149;BMP280;37210;50.058;8.688;2022-09-09T13:09:50;99717.59;;;22.10
51149;BMP280;37210;50.058;8.688;2022-09-09T13:12:21;99727.41;;;22.25
51149;BMP280;37210;50.058;8.688;2022-09-09T13:14:52;99647.13;;;21.84
51149;BMP280;37210;50.058;8.688;2022-09-09T13:17:24;99529.38;;;21.17
51149;BMP280;37210;50.058;8.688;2022-09-09T13:19:55;99716.75;;;22.09
51149;BMP280;37210;50.058;8.688;2022-09-09T13:22:29;99738.72;;;21.97
51149;BMP280;37210;50.058;8.688;2022-09-09T13:25:00;99645.94;;;21.41
51149;BMP280;37210;50.058;8.688;2022-09-09T13:27:32;99614.50;;;21.32
51149;BMP280;37210;50.058;8.688;2022-09-09T13:30:22;99705.13;;;21.95
51149;BMP280;37210;50.058;8.688;2022-09-09T13:33:19;99702.22;;;21.99
51149;BMP280;37210;50.058;8.688;2022-09-09T13:35:50;99725.13;;;21.86
51149;BMP280;37210;50.058;8.688;2022-09-09T13:38:21;99712.91;;;22.15
51149;BMP280;37210;50.058;8.688;2022-09-09T13:40:59;99714.25;;;22.06
51149;BMP280;37210;50.058;8.688;2022-09-09T13:43:31;99686.06;;;22.18
51149;BMP280;37210;50.058;8.688;2022-09-09T13:46:05;99671.09;;;21.84
51149;BMP280;37210;50.058;8.688;2022-09-09T13:48:54;99700.34;;;22.33
51149;BMP280;37210;50.058;8.688;2022-09-09T13:51:30;99705.16;;;22.26
51149;BMP280;37210;50.058;8.688;2022-09-09T13:54:04;99552.63;;;21.29
51149;BMP280;37210;50.058;8.688;2022-09-09T13:56:33;99690.53;;;22.17
51149;BMP280;37210;50.058;8.688;2022-09-09T13:59:04;99655.25;;;21.98
51149;BMP280;37210;50.058;8.688;2022-09-09T14:01:34;99722.66;;;21.83
51149;BMP280;37210;50.058;8.688;2022-09-09T14:04:02;99723.34;;;21.70
51149;BMP280;37210;50.058;8.688;2022-09-09T14:06:31;99637.53;;;21.16
51149;BMP280;37210;50.058;8.688;2022-09-09T14:09:04;99682.91;;;21.63
51149;BMP280;37210;50.058;8.688;2022-09-09T14:11:32;99742.22;;;21.82
51149;BMP280;37210;50.058;8.688;2022-09-09T14:14:00;99752.72;;;21.85
51149;BMP280;37210;50.058;8.688;2022-09-09T14:16:29;99712.78;;;21.18
51149;BMP280;37210;50.058;8.688;2022-09-09T14:18:56;99742.63;;;21.58
51149;BMP280;37210;50.058;8.688;2022-09-09T14:21:25;99688.84;;;21.18
51149;BMP280;37210;50.058;8.688;2022-09-09T14:23:54;99651.03;;;20.95
51149;BMP280;37210;50.058;8.688;2022-09-09T14:26:26;99690.47;;;21.38
51149;BMP280;37210;50.058;8.688;2022-09-09T14:28:55;99740.63;;;21.45
51149;BMP280;37210;50.058;8.688;2022-09-09T14:31:25;99695.81;;;21.04
51149;BMP280;37210;50.058;8.688;2022-09-09T14:33:52;99674.13;;;21.28
51149;BMP280;37210;50.058;8.688;2022-09-09T14:36:24;99645.31;;;21.36
51149;BMP280;37210;50.058;8.688;2022-09-09T14:38:54;99737.81;;;21.98
51149;BMP280;37210;50.058;8.688;2022-09-09T14:41:22;99650.53;;;21.71
51149;BMP280;37210;50.058;8.688;2022-09-09T14:43:49;99692.88;;;22.08
51149;BMP280;37210;50.058;8.688;2022-09-09T14:46:19;99700.75;;;22.09
51149;BMP280;37210;50.058;8.688;2022-09-09T14:48:48;99713.66;;;22.01
51149;BMP280;37210;50.058;8.688;2022-09-09T14:51:18;99708.53;;;21.81
51149;BMP280;37210;50.058;8.688;2022-09-09T14:53:51;99699.66;;;21.98
51149;BMP280;37210;50.058;8.688;2022-09-09T14:56:21;99701.94;;;21.88
51149;BMP280;37210;50.058;8.688;2022-09-09T14:58:50;99663.59;;;21.75